Molt, MT

8:27 AM MDT on May 29, 2015 (GMT -0600)
Ironwood MT | | Change Station
CLOSE
Current Station
Personal Weather Station
Location: Billings, MT
Elevation: 3504 ft
Nearby Weather Stations

Elev 3504 ft 45.82 °N, 108.66 °W | Updated 6 seconds ago

Overcast
Overcast
46.2 °F
Feels Like 45 °F
N
3.5
Wind Variable Wind from NNW
Gusts 6.0 mph

Today
High -- | Low -- °F
--% Chance of Precip.
Yesterday
High -- | Low -- °F
Precip. -- in
5:29 AM 8:55 PM
Waxing Gibbous, 84% visible
Pressure 30.34 in
Visibility 10.0 miles
Clouds Scattered Clouds 1400 ft
Mostly Cloudy 3700 ft
Overcast 6500 ft
Windchill 45 °F
Dew Point 41 °F
Humidity 83%
Rainfall 0.00 in
Snow Depth Not available.
UV 1 out of 12
Pollen 4.30 out of 12
Air Quality Not available.
Flu Activity Sporadic
METAR KBIL 291353Z 04008KT 10SM SCT014 BKN037 OVC065 08/04 A3033 RMK AO2 SLP272 T00780044

More Conditions Fewer Conditions

Pressure 30.34 in
Visibility 10.0 miles
Clouds Scattered Clouds 1400 ft
Mostly Cloudy 3700 ft
Overcast 6500 ft
Windchill 45 °F
Dew Point 41 °F
Humidity 83%
Rainfall 0.00 in
Snow Depth Not available.
UV 1 out of 12
Pollen 4.30 out of 12
Air Quality Not available.
Flu Activity Sporadic
METAR KBIL 291353Z 04008KT 10SM SCT014 BKN037 OVC065 08/04 A3033 RMK AO2 SLP272 T00780044

More Conditions Fewer Conditions

10-Day Weather Forecast

Almanac

Astronomy

May. 29, 2015 Rise Set
Actual Time
Civil Twilight
Nautical Twilight
Astronomical Twilight
Moon
Length of Visible Light
Length of Day
Tomorrow will be .
, % of the Moon is Illuminated

Today's Extremes

State Highs State Lows

Community

WunderPhotos

Upload Photos

1,825,282 photos uploaded!

WunderBlogs® & News

Nearby

Air Quality

  Air Quality AQ Index Pollutant
Not available.

Snow Depth

Station Depth Elevation

Earthquake Activity

City Distance Mag. Time & Date
Minimum magnitude displayed is 2.5.

Coastal Water Temperatures

Place Temperature

Stations

Nearby Weather Stations

Station Location Temp. Windchill Dew Point Humidity Wind Precip. Elev Updated Type